createdAt,value
2018-11-25T00:01:02.080Z,1005.65
2018-11-25T00:02:11.270Z,1005.63
2018-11-25T00:03:19.945Z,1005.61
2018-11-25T00:04:28.635Z,1005.64
2018-11-25T00:05:37.308Z,1005.65
2018-11-25T00:06:46.502Z,1005.61
2018-11-25T00:07:55.190Z,1005.61
2018-11-25T00:09:04.643Z,1005.61
2018-11-25T00:10:13.812Z,1005.59
2018-11-25T00:11:23.255Z,1005.63
2018-11-25T00:12:31.945Z,1005.61
2018-11-25T00:13:40.896Z,1005.64
2018-11-25T00:14:49.572Z,1005.65
2018-11-25T00:15:58.242Z,1005.62
2018-11-25T00:17:06.919Z,1005.58
2018-11-25T00:18:15.853Z,1005.62
2018-11-25T00:19:24.773Z,1005.61
2018-11-25T00:20:33.701Z,1005.58
2018-11-25T00:21:42.392Z,1005.58
2018-11-25T00:22:51.064Z,1005.58
2018-11-25T00:23:59.758Z,1005.61
2018-11-25T00:25:08.442Z,1005.57
2018-11-25T00:26:17.471Z,1005.59
2018-11-25T00:27:26.144Z,1005.64
2018-11-25T00:28:34.829Z,1005.59
2018-11-25T00:29:43.541Z,1005.62
2018-11-25T00:30:52.225Z,1005.59
2018-11-25T00:32:09.327Z,1005.6
2018-11-25T00:33:18.263Z,1005.59
2018-11-25T00:34:26.947Z,1005.56
2018-11-25T00:35:35.633Z,1005.58
2018-11-25T00:36:44.568Z,1005.59
2018-11-25T00:37:53.240Z,1005.55
2018-11-25T00:39:02.449Z,1005.55
2018-11-25T00:40:11.175Z,1005.56
2018-11-25T00:41:19.878Z,1005.59
2018-11-25T00:42:28.799Z,1005.57
2018-11-25T00:43:37.493Z,1005.55
2018-11-25T00:44:46.173Z,1005.59
2018-11-25T00:45:54.857Z,1005.54
2018-11-25T00:47:03.527Z,1005.55
2018-11-25T00:48:12.212Z,1005.54
2018-11-25T00:49:21.154Z,1005.55
2018-11-25T00:50:30.350Z,1005.56
2018-11-25T00:51:39.279Z,1005.56
2018-11-25T00:52:47.966Z,1005.54
2018-11-25T00:53:56.644Z,1005.55
2018-11-25T00:55:05.354Z,1005.53
2018-11-25T00:56:14.296Z,1005.55
2018-11-25T00:57:22.970Z,1005.57
2018-11-25T00:58:31.642Z,1005.58
2018-11-25T00:59:40.318Z,1005.55
2018-11-25T01:00:49.003Z,1005.59
2018-11-25T01:01:57.934Z,1005.56
2018-11-25T01:03:06.875Z,1005.58
2018-11-25T01:04:15.552Z,1005.62
2018-11-25T01:05:24.243Z,1005.62
2018-11-25T01:06:32.924Z,1005.6
2018-11-25T01:07:41.857Z,1005.6
2018-11-25T01:08:51.057Z,1005.61
2018-11-25T01:09:59.733Z,1005.58
2018-11-25T01:11:08.413Z,1005.58
2018-11-25T01:12:17.118Z,1005.57
2018-11-25T01:13:25.807Z,1005.58
2018-11-25T01:14:34.737Z,1005.56
2018-11-25T01:15:43.669Z,1005.57
2018-11-25T01:16:52.346Z,1005.54
2018-11-25T01:18:01.032Z,1005.57
2018-11-25T01:19:09.753Z,1005.55
2018-11-25T01:20:18.434Z,1005.6
2018-11-25T01:21:27.380Z,1005.6
2018-11-25T01:22:36.314Z,1005.6
2018-11-25T01:23:45.243Z,1005.58
2018-11-25T01:24:53.928Z,1005.61
2018-11-25T01:26:03.370Z,1005.61
2018-11-25T01:27:12.073Z,1005.57
2018-11-25T01:28:21.001Z,1005.59
2018-11-25T01:29:30.185Z,1005.58
2018-11-25T01:30:39.116Z,1005.61
2018-11-25T01:31:48.044Z,1005.59
2018-11-25T01:32:56.725Z,1005.6
2018-11-25T01:34:05.420Z,1005.6
2018-11-25T01:35:14.096Z,1005.59
2018-11-25T01:36:22.776Z,1005.61
2018-11-25T01:37:31.713Z,1005.59
2018-11-25T01:38:40.398Z,1005.59
2018-11-25T01:39:49.074Z,1005.56
2018-11-25T01:40:57.744Z,1005.59
2018-11-25T01:42:06.429Z,1005.54
2018-11-25T01:43:15.107Z,1005.53
2018-11-25T01:44:23.805Z,1005.52
2018-11-25T01:45:32.478Z,1005.53
2018-11-25T01:46:41.157Z,1005.56
2018-11-25T01:47:50.096Z,1005.54
2018-11-25T01:48:58.784Z,1005.56
2018-11-25T01:50:07.470Z,1005.57
2018-11-25T01:51:16.394Z,1005.57
2018-11-25T01:52:25.571Z,1005.54
2018-11-25T01:53:34.261Z,1005.56
2018-11-25T01:54:42.947Z,1005.55
2018-11-25T01:55:51.888Z,1005.51
2018-11-25T01:57:00.827Z,1005.54
2018-11-25T01:58:09.509Z,1005.49
2018-11-25T01:59:18.195Z,1005.49
2018-11-25T02:00:26.868Z,1005.51
2018-11-25T02:01:35.549Z,1005.47
2018-11-25T02:02:44.224Z,1005.44
2018-11-25T02:03:53.167Z,1005.45
2018-11-25T02:05:02.099Z,1005.41
2018-11-25T02:06:10.777Z,1005.43
2018-11-25T02:07:19.454Z,1005.42
2018-11-25T02:08:28.415Z,1005.42
2018-11-25T02:09:37.102Z,1005.37
2018-11-25T02:10:45.784Z,1005.4
2018-11-25T02:11:54.463Z,1005.35
2018-11-25T02:13:03.132Z,1005.37
2018-11-25T02:14:12.070Z,1005.42
2018-11-25T02:15:20.744Z,1005.38
2018-11-25T02:16:29.417Z,1005.39
2018-11-25T02:17:38.100Z,1005.38
2018-11-25T02:18:47.036Z,1005.38
2018-11-25T02:19:55.969Z,1005.37
2018-11-25T02:21:04.900Z,1005.36
2018-11-25T02:22:13.829Z,1005.37
2018-11-25T02:23:22.511Z,1005.39
2018-11-25T02:24:31.445Z,1005.35
2018-11-25T02:25:40.407Z,1005.36
2018-11-25T02:26:49.340Z,1005.36
2018-11-25T02:27:58.024Z,1005.37
2018-11-25T02:29:06.711Z,1005.31
2018-11-25T02:30:15.651Z,1005.28
2018-11-25T02:31:24.611Z,1005.32
2018-11-25T02:32:33.544Z,1005.32
2018-11-25T02:33:42.481Z,1005.27
2018-11-25T02:34:51.420Z,1005.26
2018-11-25T02:36:00.156Z,1005.25
2018-11-25T02:37:09.082Z,1005.28
2018-11-25T02:38:17.814Z,1005.26
2018-11-25T02:39:26.495Z,1005.26
2018-11-25T02:40:35.194Z,1005.25
2018-11-25T02:41:44.378Z,1005.3
2018-11-25T02:42:53.580Z,1005.28
2018-11-25T02:44:02.525Z,1005.31
2018-11-25T02:45:11.456Z,1005.28
2018-11-25T02:46:20.152Z,1005.23
2018-11-25T02:47:29.084Z,1005.23
2018-11-25T02:48:37.767Z,1005.2
2018-11-25T02:49:46.690Z,1005.21
2018-11-25T02:50:55.883Z,1005.25
2018-11-25T02:52:04.812Z,1005.24
2018-11-25T02:53:13.499Z,1005.23
2018-11-25T02:54:22.174Z,1005.24
2018-11-25T02:55:30.863Z,1005.25
2018-11-25T02:56:39.797Z,1005.24
2018-11-25T02:57:48.478Z,1005.24
2018-11-25T02:58:57.162Z,1005.24
2018-11-25T03:00:06.098Z,1005.25
2018-11-25T03:01:15.033Z,1005.22
2018-11-25T03:02:23.981Z,1005.28
2018-11-25T03:03:32.658Z,1005.25
2018-11-25T03:04:41.334Z,1005.23
2018-11-25T03:05:50.020Z,1005.22
2018-11-25T03:06:58.696Z,1005.22
2018-11-25T03:08:07.390Z,1005.22
2018-11-25T03:09:16.064Z,1005.23
2018-11-25T03:10:25.002Z,1005.19
2018-11-25T03:11:34.220Z,1005.21
2018-11-25T03:12:42.907Z,1005.21
2018-11-25T03:13:51.835Z,1005.2
2018-11-25T03:15:00.778Z,1005.22
2018-11-25T03:16:09.718Z,1005.23
2018-11-25T03:17:18.409Z,1005.23
2018-11-25T03:18:27.086Z,1005.22
2018-11-25T03:19:35.770Z,1005.26
2018-11-25T03:20:44.717Z,1005.27
2018-11-25T03:21:53.645Z,1005.3
2018-11-25T03:23:02.596Z,1005.3
2018-11-25T03:24:11.530Z,1005.33
2018-11-25T03:25:20.211Z,1005.33
2018-11-25T03:26:29.133Z,1005.28
2018-11-25T03:27:38.206Z,1005.34
2018-11-25T03:28:47.169Z,1005.36
2018-11-25T03:29:56.447Z,1005.32
2018-11-25T03:31:05.290Z,1005.36
2018-11-25T03:32:14.812Z,1005.4
2018-11-25T03:33:23.489Z,1005.36
2018-11-25T03:34:32.171Z,1005.37
2018-11-25T03:35:41.254Z,1005.43
2018-11-25T03:36:50.190Z,1005.38
2018-11-25T03:37:59.127Z,1005.45
2018-11-25T03:39:08.106Z,1005.41
2018-11-25T03:40:16.795Z,1005.41
2018-11-25T03:41:25.495Z,1005.43
2018-11-25T03:42:34.991Z,1005.42
2018-11-25T03:43:43.667Z,1005.42
2018-11-25T03:44:52.357Z,1005.46
2018-11-25T03:46:01.034Z,1005.43
2018-11-25T03:47:09.708Z,1005.45
2018-11-25T03:48:18.388Z,1005.47
2018-11-25T03:49:27.054Z,1005.43
2018-11-25T03:50:35.994Z,1005.43
2018-11-25T03:51:44.670Z,1005.45
2018-11-25T03:52:53.350Z,1005.48
2018-11-25T03:54:02.276Z,1005.48
2018-11-25T03:55:10.958Z,1005.47
2018-11-25T03:56:19.907Z,1005.48
2018-11-25T03:57:28.585Z,1005.48
2018-11-25T03:58:37.776Z,1005.49
2018-11-25T03:59:46.446Z,1005.5
2018-11-25T04:00:55.382Z,1005.51
2018-11-25T04:02:04.056Z,1005.55
2018-11-25T04:03:13.007Z,1005.56
2018-11-25T04:04:21.943Z,1005.58
2018-11-25T04:05:30.885Z,1005.6
2018-11-25T04:06:39.812Z,1005.6
2018-11-25T04:07:48.499Z,1005.65
2018-11-25T04:08:57.695Z,1005.59
2018-11-25T04:10:06.379Z,1005.62
2018-11-25T04:11:15.328Z,1005.62
2018-11-25T04:12:24.069Z,1005.6
2018-11-25T04:13:32.751Z,1005.65
2018-11-25T04:14:41.424Z,1005.65
2018-11-25T04:15:50.112Z,1005.61
2018-11-25T04:16:59.297Z,1005.59
2018-11-25T04:18:07.985Z,1005.62
2018-11-25T04:19:16.911Z,1005.65
2018-11-25T04:20:25.590Z,1005.63
2018-11-25T04:21:34.254Z,1005.67
2018-11-25T04:22:42.945Z,1005.65
2018-11-25T04:23:51.635Z,1005.69
2018-11-25T04:25:00.581Z,1005.68
2018-11-25T04:26:09.510Z,1005.7
2018-11-25T04:27:18.210Z,1005.65
2018-11-25T04:28:26.889Z,1005.68
2018-11-25T04:29:35.888Z,1005.67
2018-11-25T04:30:44.828Z,1005.69
2018-11-25T04:31:53.509Z,1005.67
2018-11-25T04:33:02.191Z,1005.67
2018-11-25T04:34:11.129Z,1005.68
2018-11-25T04:35:19.814Z,1005.68
2018-11-25T04:36:28.752Z,1005.67
2018-11-25T04:37:37.687Z,1005.65
2018-11-25T04:38:46.622Z,1005.66
2018-11-25T04:39:55.312Z,1005.63
2018-11-25T04:41:03.989Z,1005.63
2018-11-25T04:42:12.667Z,1005.6
2018-11-25T04:43:21.342Z,1005.6
2018-11-25T04:44:30.029Z,1005.61
2018-11-25T04:45:38.958Z,1005.57
2018-11-25T04:46:47.643Z,1005.59
2018-11-25T04:47:56.577Z,1005.56
2018-11-25T04:49:05.779Z,1005.54
2018-11-25T04:50:14.454Z,1005.5
2018-11-25T04:51:23.412Z,1005.53
2018-11-25T04:52:32.338Z,1005.51
2018-11-25T04:53:41.369Z,1005.48
2018-11-25T04:54:50.312Z,1005.5
2018-11-25T04:55:58.995Z,1005.46
2018-11-25T04:57:08.015Z,1005.46
2018-11-25T04:58:16.697Z,1005.51
2018-11-25T04:59:25.396Z,1005.49
2018-11-25T05:00:34.072Z,1005.53
2018-11-25T05:01:42.750Z,1005.51
2018-11-25T05:02:51.432Z,1005.48
2018-11-25T05:04:00.126Z,1005.5
2018-11-25T05:05:09.058Z,1005.51
2018-11-25T05:06:18.016Z,1005.49
2018-11-25T05:07:26.696Z,1005.51
2018-11-25T05:08:35.383Z,1005.53
2018-11-25T05:09:44.064Z,1005.51
2018-11-25T05:10:53.014Z,1005.54
2018-11-25T05:12:01.694Z,1005.55
2018-11-25T05:13:10.630Z,1005.52
2018-11-25T05:14:19.308Z,1005.59
2018-11-25T05:15:28.248Z,1005.58
2018-11-25T05:16:36.934Z,1005.59
2018-11-25T05:17:45.608Z,1005.6
2018-11-25T05:18:54.547Z,1005.61
2018-11-25T05:20:03.231Z,1005.57
2018-11-25T05:21:12.421Z,1005.59
2018-11-25T05:22:21.097Z,1005.6
2018-11-25T05:23:30.036Z,1005.62
2018-11-25T05:24:38.716Z,1005.6
2018-11-25T05:25:47.452Z,1005.64
2018-11-25T05:26:56.123Z,1005.65
2018-11-25T05:28:04.816Z,1005.65
2018-11-25T05:29:13.496Z,1005.64
2018-11-25T05:30:22.937Z,1005.69
2018-11-25T05:31:31.633Z,1005.67
2018-11-25T05:32:40.819Z,1005.69
2018-11-25T05:33:49.503Z,1005.72
2018-11-25T05:34:58.684Z,1005.68
2018-11-25T05:36:07.366Z,1005.66
2018-11-25T05:37:16.293Z,1005.68
2018-11-25T05:38:24.975Z,1005.68
2018-11-25T05:39:33.652Z,1005.66
2018-11-25T05:40:42.336Z,1005.7
2018-11-25T05:41:51.012Z,1005.7
2018-11-25T05:42:59.939Z,1005.71
2018-11-25T05:44:08.625Z,1005.7
2018-11-25T05:45:17.305Z,1005.69
2018-11-25T05:46:26.235Z,1005.68
2018-11-25T05:47:35.165Z,1005.68
2018-11-25T05:48:44.090Z,1005.67
2018-11-25T05:49:52.780Z,1005.65
2018-11-25T05:51:01.463Z,1005.67
2018-11-25T05:52:10.400Z,1005.64
2018-11-25T05:53:19.077Z,1005.69
2018-11-25T05:54:27.773Z,1005.67
2018-11-25T05:55:36.445Z,1005.68
2018-11-25T05:56:45.382Z,1005.66
2018-11-25T05:57:54.049Z,1005.68
2018-11-25T05:59:02.736Z,1005.72
2018-11-25T06:00:11.410Z,1005.7
2018-11-25T06:01:20.608Z,1005.67
2018-11-25T06:02:29.281Z,1005.69
2018-11-25T06:03:38.232Z,1005.71
2018-11-25T06:04:47.172Z,1005.72
2018-11-25T06:05:56.104Z,1005.73
2018-11-25T06:07:05.033Z,1005.72
2018-11-25T06:08:13.702Z,1005.72
2018-11-25T06:09:22.394Z,1005.77
2018-11-25T06:10:31.073Z,1005.76
2018-11-25T06:11:40.017Z,1005.81
2018-11-25T06:12:48.936Z,1005.81
2018-11-25T06:13:57.617Z,1005.85
2018-11-25T06:15:06.300Z,1005.86
2018-11-25T06:16:15.502Z,1005.84
2018-11-25T06:17:24.175Z,1005.85
2018-11-25T06:18:32.853Z,1005.85
2018-11-25T06:19:42.304Z,1005.88
2018-11-25T06:20:51.259Z,1005.87
2018-11-25T06:21:59.930Z,1005.84
2018-11-25T06:23:08.605Z,1005.83
2018-11-25T06:24:17.279Z,1005.9
2018-11-25T06:25:25.971Z,1005.84
2018-11-25T06:26:34.662Z,1005.83
2018-11-25T06:27:43.345Z,1005.84
2018-11-25T06:28:52.304Z,1005.83
2018-11-25T06:30:01.224Z,1005.83
2018-11-25T06:31:10.167Z,1005.85
2018-11-25T06:32:18.840Z,1005.83
2018-11-25T06:33:27.531Z,1005.84
2018-11-25T06:34:36.459Z,1005.82
2018-11-25T06:35:45.143Z,1005.83
2018-11-25T06:36:53.827Z,1005.84
2018-11-25T06:38:02.785Z,1005.82
2018-11-25T06:39:11.465Z,1005.89
2018-11-25T06:40:20.171Z,1005.82
2018-11-25T06:41:33.795Z,1005.87
2018-11-25T06:42:42.734Z,1005.87
2018-11-25T06:43:51.925Z,1005.87
2018-11-25T06:45:00.596Z,1005.81
2018-11-25T06:46:09.272Z,1005.82
2018-11-25T06:47:17.954Z,1005.81
2018-11-25T06:48:26.834Z,1005.8
2018-11-25T06:49:35.517Z,1005.81
2018-11-25T06:50:44.205Z,1005.77
2018-11-25T06:51:52.896Z,1005.79
2018-11-25T06:53:01.582Z,1005.8
2018-11-25T06:54:10.507Z,1005.82
2018-11-25T06:55:19.458Z,1005.85
2018-11-25T06:56:28.651Z,1005.87
2018-11-25T06:57:37.583Z,1005.83
2018-11-25T06:58:46.258Z,1005.87
2018-11-25T06:59:54.940Z,1005.92
2018-11-25T07:01:03.874Z,1005.94
2018-11-25T07:02:12.555Z,1005.95
2018-11-25T07:03:21.239Z,1006
2018-11-25T07:04:29.918Z,1005.93
2018-11-25T07:05:38.596Z,1005.93
2018-11-25T07:06:47.271Z,1005.92
2018-11-25T07:07:55.952Z,1005.88
2018-11-25T07:09:04.927Z,1005.87
2018-11-25T07:10:14.658Z,1005.9
2018-11-25T07:11:23.603Z,1005.86
2018-11-25T07:12:32.285Z,1005.87
2018-11-25T07:13:41.244Z,1005.91
2018-11-25T07:14:50.187Z,1005.88
2018-11-25T07:15:59.121Z,1005.92
2018-11-25T07:17:08.803Z,1005.91
2018-11-25T07:18:17.736Z,1005.92
2018-11-25T07:19:26.674Z,1005.91
2018-11-25T07:20:35.609Z,1005.97
2018-11-25T07:21:44.587Z,1005.99
2018-11-25T07:22:54.170Z,1006.02
2018-11-25T07:24:02.999Z,1006.03
2018-11-25T07:25:11.683Z,1006.07
2018-11-25T07:26:20.898Z,1006.08
2018-11-25T07:27:29.575Z,1006.12
2018-11-25T07:28:38.504Z,1006.16
2018-11-25T07:29:47.194Z,1006.16
2018-11-25T07:30:56.130Z,1006.22
2018-11-25T07:32:05.063Z,1006.26
2018-11-25T07:33:13.742Z,1006.28
2018-11-25T07:34:22.424Z,1006.31
2018-11-25T07:35:31.113Z,1006.34
2018-11-25T07:36:39.791Z,1006.31
2018-11-25T07:37:48.981Z,1006.31
2018-11-25T07:38:58.165Z,1006.29
2018-11-25T07:40:06.855Z,1006.28
2018-11-25T07:41:15.792Z,1006.26
2018-11-25T07:42:24.468Z,1006.24
2018-11-25T07:43:33.150Z,1006.26
2018-11-25T07:44:41.830Z,1006.28
2018-11-25T07:45:50.504Z,1006.22
2018-11-25T07:46:59.442Z,1006.25
2018-11-25T07:48:08.645Z,1006.24
2018-11-25T07:49:17.573Z,1006.19
2018-11-25T07:50:26.508Z,1006.18
2018-11-25T07:51:35.185Z,1006.16
2018-11-25T07:52:43.874Z,1006.13
2018-11-25T07:53:53.070Z,1006.12
2018-11-25T07:55:01.746Z,1006.12
2018-11-25T07:56:10.678Z,1006.08
2018-11-25T07:57:19.353Z,1006.1
2018-11-25T07:58:28.287Z,1006.12
2018-11-25T07:59:37.261Z,1006.17
2018-11-25T08:00:45.938Z,1006.17
2018-11-25T08:01:54.618Z,1006.22
2018-11-25T08:03:03.309Z,1006.24
2018-11-25T08:04:11.989Z,1006.21
2018-11-25T08:05:20.941Z,1006.22
2018-11-25T08:06:29.622Z,1006.23
2018-11-25T08:07:38.305Z,1006.22
2018-11-25T08:08:47.502Z,1006.22
2018-11-25T08:09:56.438Z,1006.21
2018-11-25T08:11:05.109Z,1006.23
2018-11-25T08:12:14.083Z,1006.25
2018-11-25T08:13:23.020Z,1006.19
2018-11-25T08:14:31.706Z,1006.21
2018-11-25T08:15:40.408Z,1006.17
2018-11-25T08:16:49.078Z,1006.17
2018-11-25T08:17:57.766Z,1006.18
2018-11-25T08:19:06.707Z,1006.2
2018-11-25T08:20:15.647Z,1006.21
2018-11-25T08:21:24.345Z,1006.2
2018-11-25T08:22:33.026Z,1006.21
2018-11-25T08:23:41.957Z,1006.22
2018-11-25T08:24:50.644Z,1006.2
2018-11-25T08:25:59.315Z,1006.19
2018-11-25T08:27:08.062Z,1006.19
2018-11-25T08:28:16.738Z,1006.15
2018-11-25T08:29:26.077Z,1006.16
2018-11-25T08:30:35.013Z,1006.14
2018-11-25T08:31:43.959Z,1006.1
2018-11-25T08:32:52.906Z,1006.14
2018-11-25T08:34:01.589Z,1006.19
2018-11-25T08:35:10.591Z,1006.2
2018-11-25T08:36:19.285Z,1006.17
2018-11-25T08:37:27.971Z,1006.16
2018-11-25T08:38:37.152Z,1006.15
2018-11-25T08:39:45.850Z,1006.09
2018-11-25T08:40:54.528Z,1006.09
2018-11-25T08:42:03.220Z,1006.03
2018-11-25T08:43:11.900Z,1006.02
2018-11-25T08:44:20.602Z,1006
2018-11-25T08:45:29.273Z,1006
2018-11-25T08:46:37.957Z,1006.02
2018-11-25T08:47:46.629Z,1005.98
2018-11-25T08:48:55.320Z,1005.97
2018-11-25T08:50:04.004Z,1005.94
2018-11-25T08:51:12.686Z,1005.9
2018-11-25T08:52:21.372Z,1005.87
2018-11-25T08:53:30.038Z,1005.87
2018-11-25T08:54:38.724Z,1005.84
2018-11-25T08:55:47.399Z,1005.84
2018-11-25T08:56:56.082Z,1005.83
2018-11-25T08:58:05.257Z,1005.84
2018-11-25T08:59:13.946Z,1005.84
2018-11-25T09:00:22.618Z,1005.82
2018-11-25T09:01:32.001Z,1005.87
2018-11-25T09:02:40.928Z,1005.88
2018-11-25T09:03:49.613Z,1005.9
2018-11-25T09:04:58.549Z,1005.89
2018-11-25T09:06:07.495Z,1005.9
2018-11-25T09:07:16.691Z,1005.92
2018-11-25T09:08:25.615Z,1005.91
2018-11-25T09:09:34.296Z,1005.92
2018-11-25T09:10:42.994Z,1005.91
2018-11-25T09:11:51.939Z,1005.96
2018-11-25T09:13:00.612Z,1005.97
2018-11-25T09:14:09.302Z,1005.96
2018-11-25T09:15:17.972Z,1005.93
2018-11-25T09:16:27.172Z,1005.93
2018-11-25T09:17:35.847Z,1005.98
2018-11-25T09:18:44.541Z,1005.98
2018-11-25T09:19:53.208Z,1006.04
2018-11-25T09:21:01.915Z,1006.1
2018-11-25T09:22:10.851Z,1006.12
2018-11-25T09:23:19.535Z,1006.13
2018-11-25T09:24:28.208Z,1006.19
2018-11-25T09:25:36.898Z,1006.18
2018-11-25T09:26:45.844Z,1006.22
2018-11-25T09:27:54.783Z,1006.25
2018-11-25T09:29:03.992Z,1006.26
2018-11-25T09:30:13.169Z,1006.26
2018-11-25T09:31:21.855Z,1006.29
2018-11-25T09:32:31.037Z,1006.31
2018-11-25T09:33:39.728Z,1006.31
2018-11-25T09:34:48.400Z,1006.32
2018-11-25T09:35:57.081Z,1006.32
2018-11-25T09:37:06.002Z,1006.35
2018-11-25T09:38:14.695Z,1006.37
2018-11-25T09:39:23.367Z,1006.34
2018-11-25T09:40:32.312Z,1006.33
2018-11-25T09:41:40.990Z,1006.36
2018-11-25T09:42:49.674Z,1006.35
2018-11-25T09:43:58.355Z,1006.35
2018-11-25T09:45:07.302Z,1006.34
2018-11-25T09:46:16.242Z,1006.34
2018-11-25T09:47:24.920Z,1006.34
2018-11-25T09:48:33.605Z,1006.31
2018-11-25T09:49:42.533Z,1006.29
2018-11-25T09:50:51.224Z,1006.27
2018-11-25T09:52:00.411Z,1006.27
2018-11-25T09:53:09.098Z,1006.25
2018-11-25T09:54:17.784Z,1006.25
2018-11-25T09:55:26.723Z,1006.24
2018-11-25T09:56:36.452Z,1006.23
2018-11-25T09:57:45.406Z,1006.21
2018-11-25T09:58:54.653Z,1006.25
2018-11-25T10:00:03.332Z,1006.28
2018-11-25T10:01:12.014Z,1006.28
2018-11-25T10:02:20.699Z,1006.25
2018-11-25T10:03:29.378Z,1006.22
2018-11-25T10:04:38.061Z,1006.26
2018-11-25T10:05:46.752Z,1006.2
2018-11-25T10:06:55.428Z,1006.22
2018-11-25T10:08:04.362Z,1006.22
2018-11-25T10:09:13.318Z,1006.21
2018-11-25T10:10:22.007Z,1006.18
2018-11-25T10:11:30.690Z,1006.17
2018-11-25T10:12:39.373Z,1006.17
2018-11-25T10:13:48.604Z,1006.12
2018-11-25T10:14:57.287Z,1006.13
2018-11-25T10:16:05.966Z,1006.12
2018-11-25T10:17:14.649Z,1006.11
2018-11-25T10:18:23.330Z,1006.1
2018-11-25T10:19:32.013Z,1006.14
2018-11-25T10:20:40.691Z,1006.11
2018-11-25T10:21:49.618Z,1006.1
2018-11-25T10:22:58.301Z,1006.08
2018-11-25T10:24:07.506Z,1006.08
2018-11-25T10:25:16.453Z,1006.14
2018-11-25T10:26:25.397Z,1006.11
2018-11-25T10:27:34.078Z,1006.08
2018-11-25T10:28:42.760Z,1006.1
2018-11-25T10:29:51.450Z,1006.09
2018-11-25T10:31:00.160Z,1006.04
2018-11-25T10:32:08.845Z,1006.05
2018-11-25T10:33:17.529Z,1006.02
2018-11-25T10:34:26.471Z,1006.06
2018-11-25T10:35:35.149Z,1006.02
2018-11-25T10:36:43.879Z,1006.03
2018-11-25T10:37:52.799Z,1006.04
2018-11-25T10:39:01.748Z,1006.02
2018-11-25T10:40:10.435Z,1006.02
2018-11-25T10:41:19.634Z,1005.97
2018-11-25T10:42:28.321Z,1006.01
2018-11-25T10:43:36.990Z,1006
2018-11-25T10:44:45.921Z,1006.01
2018-11-25T10:45:54.598Z,1006.05
2018-11-25T10:47:03.301Z,1006.04
2018-11-25T10:48:11.980Z,1005.99
2018-11-25T10:49:20.668Z,1006.03
2018-11-25T10:50:29.348Z,1005.99
2018-11-25T10:51:38.570Z,1006.02
2018-11-25T10:52:47.241Z,1006.03
2018-11-25T10:53:56.176Z,1006.06
2018-11-25T10:55:04.874Z,1006.05
2018-11-25T10:56:13.824Z,1006.03
2018-11-25T10:57:23.640Z,1006.04
2018-11-25T10:58:32.318Z,1005.98
2018-11-25T10:59:41.000Z,1006.01
2018-11-25T11:00:49.677Z,1005.97
2018-11-25T11:01:58.370Z,1005.95
2018-11-25T11:03:07.043Z,1005.94
2018-11-25T11:04:16.234Z,1005.98
2018-11-25T11:05:24.908Z,1005.95
2018-11-25T11:06:33.603Z,1005.91
2018-11-25T11:07:42.525Z,1005.92
2018-11-25T11:08:51.210Z,1005.91
2018-11-25T11:10:00.145Z,1005.9
2018-11-25T11:11:09.089Z,1005.89
2018-11-25T11:12:17.762Z,1005.91
2018-11-25T11:13:26.446Z,1005.91
2018-11-25T11:14:35.377Z,1005.89
2018-11-25T11:15:44.312Z,1005.87
2018-11-25T11:16:53.879Z,1005.86
2018-11-25T11:18:03.275Z,1005.88
2018-11-25T11:19:11.953Z,1005.86
2018-11-25T11:20:20.628Z,1005.9
2018-11-25T11:21:29.332Z,1005.9
2018-11-25T11:22:38.011Z,1005.91
2018-11-25T11:23:46.700Z,1005.9
2018-11-25T11:24:55.377Z,1005.9
2018-11-25T11:26:06.938Z,1005.89
2018-11-25T11:27:16.140Z,1005.91
2018-11-25T11:28:25.152Z,1005.89
2018-11-25T11:29:34.376Z,1005.89
2018-11-25T11:30:43.308Z,1005.89
2018-11-25T11:31:51.994Z,1005.92
2018-11-25T11:33:00.679Z,1005.95
2018-11-25T11:34:09.865Z,1005.9
2018-11-25T11:35:18.546Z,1005.91
2018-11-25T11:36:27.238Z,1005.88
2018-11-25T11:37:36.176Z,1005.91
2018-11-25T11:38:44.848Z,1005.91
2018-11-25T11:39:53.786Z,1005.93
2018-11-25T11:41:02.463Z,1005.96
2018-11-25T11:42:11.410Z,1005.93
2018-11-25T11:43:20.079Z,1005.9
2018-11-25T11:44:29.025Z,1005.91
2018-11-25T11:45:37.959Z,1005.91
2018-11-25T11:46:46.930Z,1005.92
2018-11-25T11:47:55.852Z,1005.97
2018-11-25T11:49:04.793Z,1005.96
2018-11-25T11:50:13.470Z,1005.95
2018-11-25T11:51:25.633Z,1005.96
2018-11-25T11:52:34.768Z,1005.98
2018-11-25T11:53:43.705Z,1005.96
2018-11-25T11:54:52.389Z,1006.04
2018-11-25T11:56:01.066Z,1005.97
2018-11-25T11:57:10.028Z,1006
2018-11-25T11:58:18.703Z,1006.01
2018-11-25T11:59:27.639Z,1006.01
2018-11-25T12:00:36.308Z,1006.01
2018-11-25T12:01:45.008Z,1006.02
2018-11-25T12:02:54.193Z,1006
2018-11-25T12:04:03.135Z,1005.98
2018-11-25T12:05:12.064Z,1006
2018-11-25T12:06:21.020Z,1005.92
2018-11-25T12:07:29.712Z,1005.93
2018-11-25T12:08:38.457Z,1005.94
2018-11-25T12:09:47.129Z,1005.93
2018-11-25T12:10:56.060Z,1005.96
2018-11-25T12:12:04.995Z,1005.92
2018-11-25T12:13:13.680Z,1005.95
2018-11-25T12:14:22.617Z,1005.94
2018-11-25T12:15:31.300Z,1005.93
2018-11-25T12:16:40.247Z,1005.96
2018-11-25T12:17:48.934Z,1005.97
2018-11-25T12:18:58.142Z,1005.98
2018-11-25T12:20:06.874Z,1005.95
2018-11-25T12:21:15.554Z,1005.96
2018-11-25T12:22:24.229Z,1005.96
2018-11-25T12:23:33.172Z,1005.98
2018-11-25T12:24:42.108Z,1005.93
2018-11-25T12:25:50.796Z,1005.95
2018-11-25T12:26:59.473Z,1005.94
2018-11-25T12:28:08.161Z,1005.92
2018-11-25T12:29:17.096Z,1005.91
2018-11-25T12:30:26.277Z,1005.93
2018-11-25T12:31:34.969Z,1005.9
2018-11-25T12:32:43.655Z,1005.94
2018-11-25T12:33:52.603Z,1005.93
2018-11-25T12:35:01.798Z,1005.93
2018-11-25T12:36:10.741Z,1005.89
2018-11-25T12:37:19.424Z,1005.88
2018-11-25T12:38:29.407Z,1005.84
2018-11-25T12:39:38.086Z,1005.85
2018-11-25T12:40:46.767Z,1005.87
2018-11-25T12:41:55.696Z,1005.91
2018-11-25T12:43:04.641Z,1005.85
2018-11-25T12:44:13.317Z,1005.9
2018-11-25T12:45:29.091Z,1005.88
2018-11-25T12:46:38.273Z,1005.86
2018-11-25T12:47:46.956Z,1005.89
2018-11-25T12:48:55.907Z,1005.88
2018-11-25T12:50:04.847Z,1005.84
2018-11-25T12:51:13.535Z,1005.82
2018-11-25T12:52:22.208Z,1005.82
2018-11-25T12:53:30.892Z,1005.79
2018-11-25T12:54:39.833Z,1005.8
2018-11-25T12:55:48.518Z,1005.76
2018-11-25T12:56:57.198Z,1005.76
2018-11-25T12:58:05.877Z,1005.76
2018-11-25T12:59:14.561Z,1005.76
2018-11-25T13:00:23.245Z,1005.76
2018-11-25T13:01:31.932Z,1005.77
2018-11-25T13:02:40.867Z,1005.77
2018-11-25T13:03:49.547Z,1005.78
2018-11-25T13:04:58.477Z,1005.77
2018-11-25T13:06:07.155Z,1005.79
2018-11-25T13:07:15.833Z,1005.78
2018-11-25T13:08:24.513Z,1005.8
2018-11-25T13:09:33.191Z,1005.79
2018-11-25T13:10:42.140Z,1005.76
2018-11-25T13:11:52.398Z,1005.75
2018-11-25T13:13:01.261Z,1005.77
2018-11-25T13:14:09.943Z,1005.74
2018-11-25T13:15:19.135Z,1005.73
2018-11-25T13:16:27.821Z,1005.73
2018-11-25T13:17:36.506Z,1005.72
2018-11-25T13:18:45.193Z,1005.74
2018-11-25T13:19:53.878Z,1005.77
2018-11-25T13:21:02.562Z,1005.74
2018-11-25T13:22:11.249Z,1005.79
2018-11-25T13:23:19.921Z,1005.83
2018-11-25T13:24:28.877Z,1005.79
2018-11-25T13:25:37.552Z,1005.82
2018-11-25T13:26:46.236Z,1005.82
2018-11-25T13:27:54.924Z,1005.84
2018-11-25T13:29:04.364Z,1005.81
2018-11-25T13:30:13.049Z,1005.82
2018-11-25T13:31:22.891Z,1005.75
2018-11-25T13:32:31.828Z,1005.76
2018-11-25T13:33:40.749Z,1005.78
2018-11-25T13:34:49.425Z,1005.74
2018-11-25T13:35:58.101Z,1005.78
2018-11-25T13:37:06.797Z,1005.79
2018-11-25T13:38:15.519Z,1005.77
2018-11-25T13:39:24.212Z,1005.76
2018-11-25T13:40:33.395Z,1005.76
2018-11-25T13:41:42.080Z,1005.75
2018-11-25T13:42:51.006Z,1005.77
2018-11-25T13:43:59.688Z,1005.74
2018-11-25T13:45:08.625Z,1005.71
2018-11-25T13:46:17.567Z,1005.71
2018-11-25T13:47:26.509Z,1005.73
2018-11-25T13:48:35.466Z,1005.73
2018-11-25T13:49:44.412Z,1005.73
2018-11-25T13:50:53.343Z,1005.73
2018-11-25T13:52:02.029Z,1005.73
2018-11-25T13:53:10.969Z,1005.66
2018-11-25T13:54:19.653Z,1005.69
2018-11-25T13:55:28.333Z,1005.66
2018-11-25T13:56:37.284Z,1005.62